Galen, Montana
Current Conditions -  °F | °C
As of 8:53 PM on Thursday 20 Nov 2014 (Local Time) from KBTM Reporting Station
Broken Clouds Broken Clouds  
Wind Chill: 30°   Ceiling: 6500
Heat Index: 30°   Visibility: 10mi
Dew Point: 24°   Wind: 0mph
Humidity: 79%   Direction: NA
Pressure: 29.94"   Gusts: NA
Location:  46.357°N, 112.771°W
Report Text: KBTM 210353Z AUTO 00000KT 10SM SCT045 SCT050 BKN065 M01/M04 A2994 RMK AO2 SLP180 T10111044
Loading
Personal Weather Stations






























Interactive Weather Map New forecast layout! Learn more

10-Day Weather Forecast

Advertisements
Track Severe Weather on mobile